Pagina principale
METAR-TAF:

METAR-TAF

Aeroporti :

George, Sudafrica

latitudine: 34-00S, longitudine: 022-23E, altezza: 193 m

Osservazione

Il bollettino è stato emesso 1 ora e 6 minuti fa, alle 12:00 UTC
Vento 2 kt da direzioni variabili
Temperature 23°C
Umidità 44%
Pressione 1016 hPa
Visibilità 10 km o più
nessuna nube inferiore a 1500 m e nessun cumulonembo

METAR: FAGG 161200Z VRB02KT CAVOK 23/10 Q1016

Ora: 15:06 (13:06 UTC)

Previsione

Il bollettino è stato emesso 3 ore e 6 minuti fa, alle 10:00 UTC
Previsione valida dal 16 alle 12 UTC al 17 alle 12 UTC
Vento 8 kt da ovest/sud-ovest
Visibilità 10 km o più
nessuna nube inferiore a 1500 m e nessun cumulonembo
Probabilità 30% :
Temporaneamente
dal 17 alle 00 UTC al 17 alle 04 UTC
Visibilità: 1500 m
Nebbia poco profondo

TAF: FAGG 161000Z 1612/1712 24008KT CAVOK TX22/1612Z TN08/1706Z PROB30 TEMPO 1700/1704 1500 MIFG

Osservazioni e previsioni meteorologiche di più di 4000 aeroporti (messaggi METAR e TAF).

Le stazioni disponibili sono rappresentate dai dischi gialli e rossi sulla carta.

Puntare il mouse per vedere il nome della stazione.

Clicca sopra per visualizzare le osservazioni e previsioni meteorologiche.

Per cambiare la mappa : fare clic sui pulsanti verdi con una croce nera per ingrandire, il pulsante verde con un trattino per diminuire, o sulla freccia verde per le mappe adiacenti.


METAR-TAF: